Time;durP1;ratioP1;P1;durP2;ratioP2;P2;SDS_P1;SDS_P2;PMS_P1;PMS_P2;Temp;Humidity;BMP_temperature;BMP_pressure;BME280_temperature;BME280_humidity;BME280_pressure;Samples;Min_cycle;Max_cycle;Signal;HPM_P1;HPM_P2
2021/05/03 00:02:11;;;;;;;16.53;14.83;;;6.50;99.90;;;;;;5067665;22;20222;-75
2021/05/03 00:04:36;;;;;;;16.07;14.40;;;6.40;99.90;;;;;;5014317;28;20633;-74
2021/05/03 00:07:03;;;;;;;15.70;14.03;;;6.40;99.90;;;;;;5022555;28;20179;-70
2021/05/03 00:09:29;;;;;;;16.70;14.90;;;6.40;99.90;;;;;;5020185;28;20186;-71
2021/05/03 00:11:54;;;;;;;18.73;16.23;;;6.40;99.90;;;;;;5011207;28;20699;-71
2021/05/03 00:14:20;;;;;;;18.20;15.93;;;6.30;99.90;;;;;;5011257;28;20598;-75
2021/05/03 00:16:46;;;;;;;17.50;15.70;;;6.40;99.90;;;;;;5013291;28;20221;-74
2021/05/03 00:19:12;;;;;;;17.90;15.90;;;6.40;99.90;;;;;;5012466;28;20231;-75
2021/05/03 00:21:38;;;;;;;18.80;16.73;;;6.50;99.90;;;;;;5012336;28;20578;-74
2021/05/03 00:24:04;;;;;;;19.10;16.73;;;6.50;99.90;;;;;;5012235;28;20182;-74
2021/05/03 00:26:30;;;;;;;17.07;15.40;;;6.60;99.90;;;;;;5013105;28;20699;-74
2021/05/03 00:28:57;;;;;;;17.13;15.27;;;6.60;99.90;;;;;;5013835;28;20233;-74
2021/05/03 00:31:22;;;;;;;17.23;15.53;;;6.60;99.90;;;;;;5012617;28;20203;-75
2021/05/03 00:33:48;;;;;;;18.23;16.20;;;6.60;99.90;;;;;;5013703;28;20713;-75
2021/05/03 00:36:14;;;;;;;17.30;15.70;;;6.70;99.90;;;;;;5013258;28;20234;-74
2021/05/03 00:38:40;;;;;;;18.13;16.23;;;6.60;99.90;;;;;;5010787;28;20610;-74
2021/05/03 00:41:06;;;;;;;16.50;15.00;;;6.70;99.90;;;;;;5012197;28;20179;-74
2021/05/03 00:43:32;;;;;;;17.23;15.53;;;6.70;99.90;;;;;;5012200;28;20664;-73
2021/05/03 00:45:58;;;;;;;16.60;15.10;;;6.60;99.90;;;;;;5011780;28;20163;-74
2021/05/03 00:48:24;;;;;;;17.77;16.00;;;6.70;99.90;;;;;;5012325;28;20261;-74
2021/05/03 00:50:51;;;;;;;17.47;15.83;;;6.70;99.90;;;;;;5011858;28;20193;-75
2021/05/03 00:53:17;;;;;;;17.90;16.13;;;6.70;99.90;;;;;;5011968;28;20178;-74
2021/05/03 00:55:44;;;;;;;18.23;16.43;;;6.70;99.90;;;;;;5012093;28;20548;-74
2021/05/03 00:58:11;;;;;;;19.00;17.20;;;6.50;99.90;;;;;;5012014;28;20194;-73
2021/05/03 01:00:37;;;;;;;17.00;15.60;;;6.50;99.90;;;;;;5012101;28;20175;-74
2021/05/03 01:03:05;;;;;;;18.83;17.00;;;6.60;99.90;;;;;;5011616;28;20210;-74
2021/05/03 01:05:32;;;;;;;19.47;17.40;;;6.50;99.90;;;;;;5010584;28;20293;-74
2021/05/03 01:08:03;;;;;;;19.00;17.30;;;6.40;99.90;;;;;;5010306;28;20168;-74
2021/05/03 01:10:30;;;;;;;19.00;17.10;;;6.40;99.90;;;;;;5017743;28;20171;-75
2021/05/03 01:12:57;;;;;;;20.37;18.27;;;6.30;99.90;;;;;;5011137;28;20279;-74
2021/05/03 01:15:24;;;;;;;22.07;18.37;;;6.20;99.90;;;;;;5012012;28;20653;-74
2021/05/03 01:18:00;;;;;;;21.70;18.93;;;6.20;99.90;;;;;;5009834;28;20190;-74
2021/05/03 01:20:29;;;;;;;21.30;19.20;;;6.00;99.90;;;;;;5001044;28;20293;-74
2021/05/03 01:22:57;;;;;;;22.63;18.63;;;6.20;99.90;;;;;;5004354;28;20191;-74
2021/05/03 01:25:27;;;;;;;20.87;18.83;;;6.20;99.90;;;;;;5011205;28;20179;-74
2021/05/03 01:27:53;;;;;;;20.27;18.13;;;6.10;99.90;;;;;;5011485;28;20179;-74
2021/05/03 01:30:19;;;;;;;21.63;19.43;;;6.20;99.90;;;;;;5010270;28;20182;-74
2021/05/03 01:32:45;;;;;;;21.13;18.97;;;6.40;99.90;;;;;;5011285;28;20206;-75
2021/05/03 01:35:15;;;;;;;20.13;17.83;;;6.30;99.90;;;;;;5011380;28;20176;-74
2021/05/03 01:37:41;;;;;;;19.67;17.67;;;6.40;99.90;;;;;;5012353;28;20187;-74
2021/05/03 01:40:09;;;;;;;20.07;18.10;;;6.40;99.90;;;;;;5008871;28;20205;-74
2021/05/03 01:42:35;;;;;;;21.10;18.90;;;6.50;99.90;;;;;;5009363;28;20261;-74
2021/05/03 01:45:02;;;;;;;21.20;18.90;;;6.40;99.90;;;;;;5008035;28;20293;-74
2021/05/03 01:47:29;;;;;;;20.63;18.53;;;6.50;99.90;;;;;;5009366;28;20185;-74
2021/05/03 01:49:55;;;;;;;21.03;18.73;;;6.50;99.90;;;;;;5013797;28;20591;-74
2021/05/03 01:52:22;;;;;;;20.23;18.13;;;6.50;99.90;;;;;;5015164;28;20207;-74
2021/05/03 01:54:50;;;;;;;20.63;18.63;;;6.50;99.90;;;;;;5015318;28;20297;-74
2021/05/03 01:57:18;;;;;;;19.73;17.73;;;6.50;99.90;;;;;;5015184;28;20186;-74
2021/05/03 01:59:47;;;;;;;20.13;18.23;;;6.30;99.90;;;;;;5014750;28;20285;-75
2021/05/03 02:02:13;;;;;;;21.40;19.30;;;6.30;99.90;;;;;;5013355;28;20230;-74
2021/05/03 02:04:39;;;;;;;21.47;19.27;;;6.30;99.90;;;;;;5014490;28;20175;-74
2021/05/03 02:07:04;;;;;;;20.53;18.60;;;6.40;99.90;;;;;;5014772;28;20547;-74
2021/05/03 02:09:30;;;;;;;22.73;19.50;;;6.50;99.90;;;;;;5022675;28;20182;-74
2021/05/03 02:11:55;;;;;;;21.93;19.00;;;6.40;99.90;;;;;;5016132;28;20217;-74
2021/05/03 02:14:21;;;;;;;20.20;18.23;;;6.30;99.90;;;;;;5016196;28;20190;-74
2021/05/03 02:16:47;;;;;;;23.77;19.30;;;6.30;99.90;;;;;;5015505;28;20222;-74
2021/05/03 02:19:13;;;;;;;21.57;19.27;;;6.30;99.90;;;;;;5014487;28;20265;-74
2021/05/03 02:21:38;;;;;;;21.13;18.70;;;6.30;99.90;;;;;;5014510;28;20198;-74
2021/05/03 02:24:05;;;;;;;20.67;18.57;;;6.40;99.90;;;;;;5014702;28;20229;-74
2021/05/03 02:26:30;;;;;;;20.93;18.73;;;6.50;99.90;;;;;;5013175;28;20716;-75
2021/05/03 02:28:56;;;;;;;20.80;18.50;;;6.60;99.90;;;;;;5014697;28;20183;-74
2021/05/03 02:31:22;;;;;;;21.13;19.13;;;6.70;99.90;;;;;;5012842;28;20215;-74
2021/05/03 02:33:48;;;;;;;20.93;18.93;;;6.60;99.90;;;;;;5013038;28;20191;-74
2021/05/03 02:36:15;;;;;;;19.77;17.87;;;6.60;99.90;;;;;;5018891;28;20177;-74
2021/05/03 02:38:40;;;;;;;21.20;19.10;;;6.70;99.90;;;;;;5014246;28;20207;-75
2021/05/03 02:41:07;;;;;;;21.27;19.07;;;6.50;99.90;;;;;;5032722;28;20189;-74
2021/05/03 02:43:33;;;;;;;21.27;19.07;;;6.50;99.90;;;;;;5033315;28;20213;-74
2021/05/03 02:45:58;;;;;;;20.57;18.50;;;6.40;99.90;;;;;;5029750;28;20203;-74
2021/05/03 02:48:24;;;;;;;21.33;19.23;;;6.30;99.90;;;;;;5031175;28;20641;-74
2021/05/03 02:50:50;;;;;;;21.33;19.03;;;6.30;99.90;;;;;;5029696;28;20189;-74
2021/05/03 02:53:15;;;;;;;20.83;18.80;;;6.30;99.90;;;;;;5032423;28;20672;-74
2021/05/03 02:55:41;;;;;;;22.33;20.03;;;6.40;99.90;;;;;;5031544;28;20206;-75
2021/05/03 02:58:06;;;;;;;22.83;20.50;;;6.50;99.90;;;;;;5012174;28;20244;-74
2021/05/03 03:00:36;;;;;;;20.10;18.30;;;6.50;99.90;;;;;;5012669;28;20208;-74
2021/05/03 03:03:03;;;;;;;22.03;18.80;;;6.50;99.90;;;;;;5018928;28;20206;-74
2021/05/03 03:05:29;;;;;;;21.10;19.00;;;6.40;99.90;;;;;;5022916;28;20176;-74
2021/05/03 03:08:00;;;;;;;22.77;19.50;;;6.30;99.90;;;;;;5032529;28;20297;-74
2021/05/03 03:10:27;;;;;;;22.87;20.50;;;6.20;99.90;;;;;;5026890;28;20171;-74
2021/05/03 03:12:54;;;;;;;22.17;19.87;;;6.10;99.90;;;;;;5020525;28;20203;-74
2021/05/03 03:15:20;;;;;;;21.63;19.43;;;6.30;99.90;;;;;;5009109;28;20182;-74
2021/05/03 03:17:47;;;;;;;21.43;19.17;;;6.10;99.90;;;;;;5008522;28;20262;-75
2021/05/03 03:20:14;;;;;;;22.17;19.83;;;6.00;99.90;;;;;;5013706;28;20197;-75
2021/05/03 03:22:40;;;;;;;22.70;20.27;;;5.90;99.90;;;;;;5013818;28;20195;-73
2021/05/03 03:25:06;;;;;;;23.97;21.27;;;6.00;99.90;;;;;;4996470;28;20237;-74
2021/05/03 03:27:32;;;;;;;21.03;18.93;;;6.10;99.90;;;;;;5024709;28;20174;-74
2021/05/03 03:29:59;;;;;;;22.87;20.23;;;6.10;99.90;;;;;;5012652;28;20190;-74
2021/05/03 03:32:25;;;;;;;22.00;19.67;;;6.20;99.90;;;;;;5013024;28;20203;-74
2021/05/03 03:34:51;;;;;;;21.37;19.23;;;6.30;99.90;;;;;;5011665;28;20942;-74
2021/05/03 03:37:16;;;;;;;21.73;19.50;;;6.30;99.90;;;;;;5012984;28;20545;-75
2021/05/03 03:39:42;;;;;;;23.77;20.37;;;6.40;99.90;;;;;;5013274;28;20241;-74
2021/05/03 03:42:09;;;;;;;22.37;20.10;;;6.50;99.90;;;;;;5012930;28;20955;-74
2021/05/03 03:44:34;;;;;;;22.23;20.03;;;6.40;99.90;;;;;;5013057;28;20225;-75
2021/05/03 03:47:00;;;;;;;22.33;20.13;;;6.50;99.90;;;;;;5012980;28;20171;-74
2021/05/03 03:49:26;;;;;;;21.37;19.27;;;6.50;99.90;;;;;;5012860;28;20174;-74
2021/05/03 03:51:51;;;;;;;22.90;20.27;;;6.40;99.90;;;;;;5012908;28;20211;-74
2021/05/03 03:54:18;;;;;;;21.83;19.50;;;6.40;99.90;;;;;;5012708;28;20616;-74
2021/05/03 03:56:44;;;;;;;22.17;19.40;;;6.40;99.90;;;;;;5013040;28;20207;-74
2021/05/03 03:59:11;;;;;;;21.70;19.43;;;6.40;99.90;;;;;;5012592;28;20203;-74
2021/05/03 04:01:37;;;;;;;21.83;19.73;;;6.40;99.90;;;;;;5012081;28;20312;-75
2021/05/03 04:04:12;;;;;;;21.00;18.80;;;6.40;99.90;;;;;;5012817;28;20179;-73
2021/05/03 04:09:17;;;;;;;21.23;19.13;;;6.30;99.90;;;;;;5017850;28;20167;-74
2021/05/03 04:27:39;;;;;;;20.43;18.33;;;6.30;99.90;;;;;;5012576;28;20262;-74
2021/05/03 04:30:10;;;;;;;21.40;19.23;;;6.30;99.90;;;;;;5012189;28;20258;-74
2021/05/03 04:32:36;;;;;;;20.30;18.30;;;6.30;99.90;;;;;;5012212;28;20756;-74
2021/05/03 04:35:03;;;;;;;21.50;19.23;;;6.20;99.90;;;;;;5012314;28;20261;-74
2021/05/03 04:37:29;;;;;;;21.23;19.23;;;6.30;99.90;;;;;;5012616;28;20239;-74
2021/05/03 04:39:54;;;;;;;23.07;20.37;;;6.30;99.90;;;;;;5013037;28;20637;-74
2021/05/03 04:42:20;;;;;;;20.37;18.47;;;6.30;99.90;;;;;;5009754;28;20257;-73
2021/05/03 04:44:46;;;;;;;22.63;20.23;;;6.20;99.90;;;;;;5019732;28;20230;-73
2021/05/03 04:47:12;;;;;;;22.50;20.17;;;6.30;99.90;;;;;;5014426;28;20183;-74
2021/05/03 04:49:38;;;;;;;21.13;18.87;;;6.30;99.90;;;;;;5022676;28;20208;-74
2021/05/03 04:52:04;;;;;;;21.63;19.50;;;6.30;99.90;;;;;;5031102;28;20273;-74
2021/05/03 04:54:30;;;;;;;22.20;19.90;;;6.30;99.90;;;;;;5028182;28;20178;-74
2021/05/03 04:56:57;;;;;;;22.53;20.23;;;6.30;99.90;;;;;;5032041;28;20170;-73
2021/05/03 04:59:23;;;;;;;21.63;19.53;;;6.10;99.90;;;;;;5031225;28;20206;-73
2021/05/03 05:01:48;;;;;;;21.77;19.57;;;6.20;99.90;;;;;;5023935;28;20218;-74
2021/05/03 05:04:14;;;;;;;22.90;19.87;;;6.20;99.90;;;;;;5013825;28;20178;-74
2021/05/03 05:06:40;;;;;;;20.90;18.70;;;6.30;99.90;;;;;;5022760;28;20214;-74
2021/05/03 05:09:08;;;;;;;23.27;20.77;;;6.30;99.90;;;;;;5032825;28;20176;-74
2021/05/03 05:11:34;;;;;;;18.20;16.20;;;6.40;99.90;;;;;;5027855;28;20194;-74
2021/05/03 05:14:01;;;;;;;18.17;16.27;;;6.40;99.90;;;;;;5030794;28;20226;-74
2021/05/03 05:16:28;;;;;;;17.03;15.33;;;6.20;99.90;;;;;;5027245;28;20653;-73
2021/05/03 05:18:54;;;;;;;16.43;14.93;;;6.30;99.90;;;;;;5008717;28;20202;-73
2021/05/03 05:21:20;;;;;;;17.23;15.63;;;6.20;99.90;;;;;;5013409;28;20199;-74
2021/05/03 05:23:48;;;;;;;19.50;16.27;;;6.00;99.90;;;;;;5011605;28;20178;-73
2021/05/03 05:26:14;;;;;;;18.23;16.30;;;6.10;99.90;;;;;;5013609;28;20177;-74
2021/05/03 05:28:40;;;;;;;18.77;16.77;;;6.10;99.90;;;;;;5012869;28;20588;-74
2021/05/03 05:31:06;;;;;;;18.87;17.00;;;6.10;99.90;;;;;;5012217;28;20183;-73
2021/05/03 05:33:32;;;;;;;18.53;16.73;;;6.10;99.90;;;;;;5013380;28;20179;-73
2021/05/03 05:35:58;;;;;;;20.93;18.83;;;6.20;99.90;;;;;;5025946;28;20175;-74
2021/05/03 05:38:23;;;;;;;21.67;19.33;;;6.20;99.90;;;;;;5013524;28;20191;-74
2021/05/03 05:40:49;;;;;;;21.40;19.10;;;6.10;99.90;;;;;;5013451;28;20272;-74
2021/05/03 05:43:15;;;;;;;21.20;18.97;;;6.10;99.90;;;;;;5013277;28;20675;-74
2021/05/03 05:45:41;;;;;;;21.47;19.23;;;6.20;99.90;;;;;;5013332;28;20167;-74
2021/05/03 05:48:07;;;;;;;21.77;19.47;;;6.10;99.90;;;;;;5012146;28;20250;-74
2021/05/03 05:50:33;;;;;;;21.70;18.60;;;6.10;99.90;;;;;;5013528;28;20167;-74
2021/05/03 05:52:59;;;;;;;27.03;20.20;;;5.90;99.90;;;;;;5013308;28;20191;-74
2021/05/03 05:55:25;;;;;;;22.33;19.93;;;5.80;99.90;;;;;;5013312;28;20209;-73
2021/05/03 05:57:51;;;;;;;21.77;19.50;;;5.80;99.90;;;;;;5012284;28;20206;-74
2021/05/03 06:00:17;;;;;;;22.60;20.20;;;5.80;99.90;;;;;;5018308;28;20659;-74
2021/05/03 06:02:44;;;;;;;24.63;20.70;;;5.90;99.90;;;;;;5061849;22;20229;-72
2021/05/03 06:05:11;;;;;;;23.90;19.57;;;6.00;99.90;;;;;;5050876;28;20170;-72
2021/05/03 06:07:36;;;;;;;21.97;19.60;;;6.10;99.90;;;;;;5050109;28;20739;-72
2021/05/03 06:10:03;;;;;;;20.73;18.73;;;6.10;99.90;;;;;;5044717;28;20265;-72
2021/05/03 06:12:30;;;;;;;21.33;19.13;;;6.20;99.90;;;;;;5036859;28;20198;-72
2021/05/03 06:14:56;;;;;;;22.23;20.03;;;6.30;99.90;;;;;;5039121;28;20171;-72
2021/05/03 06:17:22;;;;;;;21.97;19.77;;;6.30;99.90;;;;;;5040076;28;20189;-72
2021/05/03 06:19:48;;;;;;;21.93;19.73;;;6.30;99.90;;;;;;5040327;28;20205;-72
2021/05/03 06:22:14;;;;;;;24.10;21.07;;;6.40;99.90;;;;;;5066771;28;20234;-73
2021/05/03 06:24:41;;;;;;;23.00;19.40;;;6.50;99.90;;;;;;5047847;28;20691;-72
2021/05/03 06:27:07;;;;;;;22.53;19.27;;;6.50;99.90;;;;;;5052542;28;20227;-72
2021/05/03 06:29:33;;;;;;;20.93;18.73;;;6.60;99.90;;;;;;5052621;28;20568;-72
2021/05/03 06:31:59;;;;;;;20.07;17.97;;;6.70;99.90;;;;;;5051146;28;20198;-73
2021/05/03 06:34:29;;;;;;;19.50;17.60;;;6.70;99.90;;;;;;5052607;28;20222;-71
2021/05/03 06:36:55;;;;;;;22.13;17.77;;;6.70;99.90;;;;;;5056309;28;20187;-73
2021/05/03 06:39:21;;;;;;;21.67;19.50;;;6.70;99.90;;;;;;5049659;28;20189;-73
2021/05/03 06:41:48;;;;;;;20.27;18.20;;;6.80;99.90;;;;;;5054403;28;20194;-72
2021/05/03 06:44:14;;;;;;;21.07;18.70;;;6.90;99.90;;;;;;5053952;28;20185;-72
2021/05/03 06:46:40;;;;;;;19.20;17.30;;;7.00;99.90;;;;;;5053362;28;20170;-72
2021/05/03 06:49:06;;;;;;;19.47;17.03;;;7.10;99.90;;;;;;5054714;28;20197;-72
2021/05/03 06:51:32;;;;;;;19.23;17.20;;;7.10;99.90;;;;;;5055352;28;20189;-72
2021/05/03 06:53:57;;;;;;;19.47;17.67;;;7.10;99.90;;;;;;5056293;28;20242;-72
2021/05/03 06:56:24;;;;;;;19.43;17.53;;;7.00;99.90;;;;;;5060186;28;20255;-72
2021/05/03 06:58:51;;;;;;;18.27;16.57;;;7.00;99.90;;;;;;5060162;28;20190;-72
2021/05/03 07:01:16;;;;;;;18.60;16.90;;;6.80;99.90;;;;;;5044462;28;20546;-70
2021/05/03 07:03:43;;;;;;;17.37;15.77;;;6.80;99.90;;;;;;5049091;28;20202;-72
2021/05/03 07:06:12;;;;;;;19.23;17.33;;;6.70;99.90;;;;;;5042759;28;20266;-72
2021/05/03 07:08:38;;;;;;;17.80;16.20;;;6.90;99.90;;;;;;5069411;28;20670;-73
2021/05/03 07:11:09;;;;;;;17.97;16.27;;;6.90;99.90;;;;;;5066107;28;20179;-73
2021/05/03 07:13:38;;;;;;;17.13;15.50;;;6.90;99.90;;;;;;5055751;28;20718;-72
2021/05/03 07:16:05;;;;;;;17.90;16.20;;;6.90;99.90;;;;;;5055495;28;20177;-73
2021/05/03 07:18:31;;;;;;;18.33;16.53;;;6.80;99.90;;;;;;5054973;28;20193;-73
2021/05/03 07:20:56;;;;;;;15.87;14.50;;;6.80;99.90;;;;;;5054182;28;20189;-72
2021/05/03 07:23:22;;;;;;;17.70;15.80;;;6.70;99.90;;;;;;5054510;28;20601;-72
2021/05/03 07:25:49;;;;;;;16.60;15.07;;;6.80;99.90;;;;;;5052186;28;20263;-72
2021/05/03 07:28:14;;;;;;;16.00;14.53;;;6.80;99.90;;;;;;5044230;28;20212;-72
2021/05/03 07:30:40;;;;;;;16.60;15.07;;;7.00;99.90;;;;;;5052710;28;20655;-72
2021/05/03 07:33:06;;;;;;;16.07;14.47;;;7.20;99.90;;;;;;5055069;28;20198;-72
2021/05/03 07:35:32;;;;;;;15.30;13.83;;;7.30;99.90;;;;;;5055526;28;20176;-72
2021/05/03 07:37:58;;;;;;;15.50;14.07;;;7.40;99.90;;;;;;5054936;28;20182;-72
2021/05/03 07:40:24;;;;;;;16.50;15.00;;;7.50;99.90;;;;;;5054364;28;20202;-72
2021/05/03 07:42:50;;;;;;;15.17;13.67;;;7.40;99.90;;;;;;5054974;28;20204;-72
2021/05/03 07:45:16;;;;;;;14.57;13.17;;;7.50;99.90;;;;;;5056110;28;20178;-71
2021/05/03 07:47:44;;;;;;;13.70;12.60;;;7.40;99.90;;;;;;5051715;28;20174;-73
2021/05/03 07:50:10;;;;;;;13.50;12.30;;;7.50;99.90;;;;;;5054830;28;20174;-72
2021/05/03 07:52:37;;;;;;;14.90;13.53;;;7.50;99.90;;;;;;5046098;28;20197;-72
2021/05/03 07:55:03;;;;;;;15.07;13.63;;;7.40;99.90;;;;;;5044380;28;20523;-74
2021/05/03 07:57:29;;;;;;;14.87;13.43;;;7.40;99.90;;;;;;5045303;28;20174;-74
2021/05/03 07:59:55;;;;;;;14.40;13.20;;;7.50;99.90;;;;;;5048232;28;20531;-74
2021/05/03 08:02:21;;;;;;;13.40;12.33;;;7.60;99.90;;;;;;5044056;28;20209;-73
2021/05/03 08:04:46;;;;;;;14.20;12.83;;;7.70;99.90;;;;;;5049366;28;20225;-73
2021/05/03 08:07:12;;;;;;;14.57;13.27;;;7.70;99.90;;;;;;5040825;28;20531;-74
2021/05/03 08:09:39;;;;;;;14.43;13.10;;;7.80;99.90;;;;;;5044186;28;20268;-73
2021/05/03 08:12:06;;;;;;;14.13;13.00;;;7.80;99.90;;;;;;5045149;28;20190;-73
2021/05/03 08:14:32;;;;;;;12.87;11.70;;;7.90;99.90;;;;;;5048214;28;20171;-72
2021/05/03 08:17:04;;;;;;;13.40;12.20;;;8.10;99.90;;;;;;5048867;28;20186;-72
2021/05/03 08:19:31;;;;;;;14.50;13.07;;;8.20;99.90;;;;;;5044535;28;20190;-72
2021/05/03 08:21:58;;;;;;;13.30;12.17;;;8.40;99.90;;;;;;5048953;28;20200;-73
2021/05/03 08:24:24;;;;;;;13.00;12.00;;;8.40;99.90;;;;;;5062089;28;20180;-72
2021/05/03 08:26:49;;;;;;;13.47;12.30;;;8.40;99.90;;;;;;5051772;28;20170;-73
2021/05/03 08:29:15;;;;;;;12.70;11.70;;;8.30;99.90;;;;;;5053472;28;20175;-73
2021/05/03 08:31:42;;;;;;;13.73;12.57;;;8.30;99.90;;;;;;5061830;28;20182;-72
2021/05/03 08:34:08;;;;;;;12.80;11.60;;;8.30;99.90;;;;;;5072811;28;20181;-72
2021/05/03 08:36:35;;;;;;;12.80;11.70;;;8.30;99.90;;;;;;5073962;28;20177;-71
2021/05/03 08:39:04;;;;;;;11.60;10.27;;;8.30;99.90;;;;;;5070271;28;20203;-72
2021/05/03 08:41:30;;;;;;;11.63;10.73;;;8.20;99.90;;;;;;5051595;28;20166;-72
2021/05/03 08:43:56;;;;;;;12.57;11.47;;;8.10;99.90;;;;;;5072695;28;20180;-72
2021/05/03 08:46:28;;;;;;;12.70;11.60;;;8.20;99.90;;;;;;5045758;28;20178;-72
2021/05/03 08:49:05;;;;;;;11.97;10.97;;;8.30;99.90;;;;;;5046803;28;20499;-72
2021/05/03 08:54:15;;;;;;;11.90;10.80;;;8.80;99.90;;;;;;5054004;28;20169;-73
2021/05/03 08:56:40;;;;;;;10.27;9.33;;;8.90;99.90;;;;;;5053906;28;20181;-72
2021/05/03 08:59:06;;;;;;;10.77;9.67;;;9.10;99.90;;;;;;5053408;28;20557;-72
2021/05/03 09:01:32;;;;;;;10.00;9.10;;;9.30;99.90;;;;;;5053455;28;20232;-72
2021/05/03 09:03:59;;;;;;;9.80;9.10;;;9.50;99.90;;;;;;5046595;28;20744;-73
2021/05/03 09:06:25;;;;;;;8.43;7.73;;;9.70;99.90;;;;;;5034129;28;20209;-74
2021/05/03 09:09:03;;;;;;;8.50;7.87;;;9.80;99.90;;;;;;5034166;28;20592;-72
2021/05/03 09:11:29;;;;;;;8.70;8.00;;;9.90;99.90;;;;;;5042579;28;20182;-73
2021/05/03 09:14:07;;;;;;;8.17;7.57;;;10.00;99.90;;;;;;5050592;28;20237;-72
2021/05/03 09:16:33;;;;;;;7.37;6.77;;;10.20;99.90;;;;;;5051468;28;20201;-73
2021/05/03 09:19:01;;;;;;;8.90;8.00;;;10.20;99.90;;;;;;5052021;28;20206;-72
2021/05/03 09:21:31;;;;;;;8.40;7.60;;;10.40;99.90;;;;;;5049815;28;20173;-73
2021/05/03 09:24:04;;;;;;;8.10;7.50;;;10.50;99.90;;;;;;5042033;28;20180;-73
2021/05/03 09:26:46;;;;;;;8.00;7.40;;;10.40;99.90;;;;;;5050844;28;20174;-73
2021/05/03 09:29:31;;;;;;;8.90;8.10;;;10.50;99.90;;;;;;5050678;28;20248;-72
2021/05/03 09:32:12;;;;;;;8.53;7.83;;;10.80;99.90;;;;;;5051824;28;20306;-72
2021/05/03 09:34:50;;;;;;;8.00;7.30;;;10.60;99.90;;;;;;5050527;28;20172;-74
2021/05/03 09:37:34;;;;;;;8.10;7.47;;;10.80;99.90;;;;;;5052206;28;20240;-72
2021/05/03 09:40:03;;;;;;;8.10;7.50;;;10.90;99.90;;;;;;5051767;28;20236;-73
2021/05/03 09:42:49;;;;;;;9.70;8.93;;;10.80;99.90;;;;;;5051961;28;20202;-73
2021/05/03 09:45:23;;;;;;;9.43;8.60;;;10.70;99.90;;;;;;5050394;28;20170;-73
2021/05/03 09:47:51;;;;;;;9.13;7.40;;;11.00;99.90;;;;;;5051775;28;20163;-73
2021/05/03 09:50:21;;;;;;;6.93;6.40;;;11.20;99.90;;;;;;5052272;28;20262;-72
2021/05/03 09:53:09;;;;;;;6.43;5.83;;;11.20;99.90;;;;;;5051647;28;20285;-73
2021/05/03 09:55:49;;;;;;;5.93;5.43;;;11.30;99.90;;;;;;5052749;28;20261;-74
2021/05/03 09:58:23;;;;;;;6.10;5.53;;;11.50;99.90;;;;;;5045632;28;20195;-73
2021/05/03 10:00:56;;;;;;;6.37;5.70;;;11.60;99.90;;;;;;5035923;28;20179;-74
2021/05/03 10:03:42;;;;;;;6.20;5.60;;;11.90;99.90;;;;;;5040880;28;20199;-72
2021/05/03 10:06:10;;;;;;;6.80;6.20;;;12.00;99.90;;;;;;5037757;28;20175;-73
2021/05/03 10:08:37;;;;;;;5.27;4.87;;;12.10;99.90;;;;;;5038115;28;20206;-73
2021/05/03 10:11:10;;;;;;;4.53;4.17;;;12.20;99.90;;;;;;5041280;28;20227;-74
2021/05/03 10:13:38;;;;;;;5.27;4.87;;;12.20;99.90;;;;;;5044739;28;20200;-72
2021/05/03 10:16:06;;;;;;;5.57;5.17;;;12.10;99.90;;;;;;5043255;28;20190;-73
2021/05/03 10:18:35;;;;;;;5.50;5.10;;;11.90;99.90;;;;;;5044305;28;20297;-73
2021/05/03 10:21:01;;;;;;;6.53;5.93;;;12.20;99.90;;;;;;5042170;28;20192;-73
2021/05/03 10:23:27;;;;;;;7.30;6.03;;;12.50;99.90;;;;;;5041310;28;20207;-74
2021/05/03 10:25:58;;;;;;;8.27;5.43;;;12.70;99.90;;;;;;5042565;28;20197;-74
2021/05/03 10:28:25;;;;;;;7.23;5.07;;;12.80;99.90;;;;;;5041633;28;20173;-72
2021/05/03 10:30:54;;;;;;;4.47;4.07;;;13.00;99.90;;;;;;5049856;28;20642;-73
2021/05/03 10:33:32;;;;;;;4.27;3.97;;;12.90;99.90;;;;;;5044921;28;20224;-71
2021/05/03 10:35:58;;;;;;;4.30;4.00;;;12.90;99.90;;;;;;5052211;28;20241;-73
2021/05/03 10:38:30;;;;;;;4.13;3.83;;;13.10;99.90;;;;;;5045934;28;20666;-73
2021/05/03 10:40:57;;;;;;;3.47;3.20;;;12.90;99.90;;;;;;5042508;28;20172;-72
2021/05/03 10:43:27;;;;;;;5.10;4.57;;;13.10;99.90;;;;;;5044848;28;20632;-73
2021/05/03 10:46:53;;;;;;;4.30;4.00;;;13.10;99.90;;;;;;5049826;28;20169;-74
2021/05/03 10:49:10;;;;;;;4.17;3.87;;;13.30;99.90;;;;;;5055777;28;20186;-73
2021/05/03 10:54:26;;;;;;;7.20;3.20;;;12.90;99.90;;;;;;5041020;28;20223;-73
2021/05/03 10:56:57;;;;;;;2.80;2.60;;;13.20;99.90;;;;;;5041858;28;20174;-72
2021/05/03 10:59:23;;;;;;;4.73;2.87;;;13.30;99.90;;;;;;5051073;28;20223;-73
2021/05/03 11:01:52;;;;;;;3.80;3.50;;;13.50;99.90;;;;;;5048284;28;20235;-72
2021/05/03 11:04:21;;;;;;;2.63;2.43;;;13.80;99.90;;;;;;5043960;28;20165;-73
2021/05/03 11:06:47;;;;;;;3.43;2.70;;;13.90;99.90;;;;;;5046335;28;20186;-73
2021/05/03 11:09:28;;;;;;;3.23;2.93;;;14.10;99.90;;;;;;5052014;28;20177;-74
2021/05/03 11:12:06;;;;;;;3.10;2.80;;;14.20;99.90;;;;;;5049737;28;20235;-73
2021/05/03 11:14:36;;;;;;;5.33;2.93;;;14.20;99.90;;;;;;5044221;28;20172;-73
2021/05/03 11:17:21;;;;;;;3.33;3.00;;;14.30;99.90;;;;;;5043402;28;20173;-74
2021/05/03 11:22:39;;;;;;;3.20;2.90;;;14.10;99.90;;;;;;5043433;28;20660;-74
2021/05/03 11:25:10;;;;;;;3.40;3.10;;;14.30;99.90;;;;;;5047763;28;20173;-73
2021/05/03 11:30:39;;;;;;;3.10;2.77;;;13.90;99.90;;;;;;5043620;28;20172;-74
2021/05/03 11:33:12;;;;;;;3.10;2.80;;;14.10;99.90;;;;;;5053525;28;20284;-73
2021/05/03 11:38:42;;;;;;;5.83;2.90;;;14.80;99.90;;;;;;5050206;28;20537;-73
2021/05/03 11:41:22;;;;;;;2.30;2.10;;;14.90;99.90;;;;;;5049392;28;20185;-73
2021/05/03 11:46:34;;;;;;;2.47;2.27;;;14.70;99.90;;;;;;5047921;28;20185;-73
2021/05/03 11:49:13;;;;;;;5.97;2.37;;;14.60;99.90;;;;;;5048583;28;20185;-73
2021/05/03 11:51:50;;;;;;;2.60;2.40;;;14.60;99.90;;;;;;5049410;28;20176;-73
2021/05/03 11:54:22;;;;;;;2.33;2.10;;;14.00;99.90;;;;;;5050045;28;20191;-73
2021/05/03 11:56:55;;;;;;;2.17;1.80;;;14.30;99.90;;;;;;5054005;28;20691;-73
2021/05/03 11:59:21;;;;;;;4.23;3.10;;;14.50;99.90;;;;;;5049094;28;20196;-73
2021/05/03 12:02:01;;;;;;;3.20;2.70;;;14.50;99.90;;;;;;5048475;28;20771;-74
2021/05/03 12:04:33;;;;;;;2.10;1.93;;;14.80;99.90;;;;;;5072955;22;20229;-74
2021/05/03 12:07:09;;;;;;;2.50;2.20;;;15.10;99.90;;;;;;5060201;28;20533;-74
2021/05/03 12:09:36;;;;;;;2.17;2.03;;;14.70;99.90;;;;;;5041236;28;20642;-74
2021/05/03 12:12:03;;;;;;;2.60;2.20;;;14.90;99.20;;;;;;5053972;28;20172;-75
2021/05/03 12:14:46;;;;;;;2.20;2.00;;;15.10;99.50;;;;;;5052177;28;20206;-75
2021/05/03 12:17:23;;;;;;;3.30;2.03;;;14.90;97.60;;;;;;5053256;28;20169;-74
2021/05/03 12:19:56;;;;;;;3.20;2.00;;;14.70;96.00;;;;;;5046838;28;20508;-74
2021/05/03 12:22:24;;;;;;;2.70;2.50;;;14.80;95.90;;;;;;5050774;28;20169;-74
2021/05/03 12:24:54;;;;;;;2.10;1.90;;;14.90;98.30;;;;;;5042377;28;20600;-74
2021/05/03 12:27:20;;;;;;;2.20;2.10;;;15.10;97.40;;;;;;5046903;28;20536;-74
2021/05/03 12:29:46;;;;;;;2.23;1.90;;;15.20;99.90;;;;;;5045038;28;20177;-72
2021/05/03 12:32:15;;;;;;;2.00;1.90;;;15.40;98.40;;;;;;5046484;28;20636;-74
2021/05/03 12:34:51;;;;;;;2.40;2.20;;;15.00;97.80;;;;;;5045755;28;20296;-74
2021/05/03 12:37:21;;;;;;;1.57;1.47;;;15.10;99.20;;;;;;5039789;28;20173;-75
2021/05/03 12:40:09;;;;;;;2.60;2.00;;;15.40;99.10;;;;;;5050295;28;20185;-74
2021/05/03 12:42:54;;;;;;;1.97;1.87;;;15.50;95.60;;;;;;5046966;28;20177;-74
2021/05/03 12:57:16;;;;;;;2.83;2.53;;;15.40;98.90;;;;;;5035002;28;20221;-74
2021/05/03 13:02:24;;;;;;;3.40;2.67;;;15.50;96.40;;;;;;5045338;28;20195;-75
2021/05/03 13:05:10;;;;;;;3.57;2.53;;;15.40;95.00;;;;;;5044599;28;20531;-73
2021/05/03 13:29:53;;;;;;;2.40;2.20;;;16.10;98.30;;;;;;5035088;28;20309;-75
2021/05/03 13:32:20;;;;;;;1.80;1.70;;;16.20;94.70;;;;;;5043948;28;20204;-75
2021/05/03 13:34:49;;;;;;;1.77;1.67;;;16.10;96.20;;;;;;5047300;28;20560;-75
2021/05/03 13:37:15;;;;;;;6.10;2.20;;;16.20;95.80;;;;;;5049353;28;20174;-74
2021/05/03 13:39:42;;;;;;;2.33;2.13;;;16.20;94.60;;;;;;5043331;28;20228;-73
2021/05/03 13:42:09;;;;;;;3.57;3.00;;;16.20;93.10;;;;;;5047842;28;20174;-74
2021/05/03 13:44:35;;;;;;;3.37;2.93;;;15.90;93.90;;;;;;5047514;28;20282;-75
2021/05/03 13:47:01;;;;;;;1.93;1.83;;;15.80;94.70;;;;;;5047975;28;20166;-74
2021/05/03 13:49:30;;;;;;;2.47;2.20;;;15.90;94.50;;;;;;5043203;28;20170;-74
2021/05/03 13:51:56;;;;;;;2.17;1.93;;;15.60;92.10;;;;;;5046421;28;20201;-72
2021/05/03 13:54:21;;;;;;;2.10;1.90;;;15.50;93.70;;;;;;5050265;28;20225;-75
2021/05/03 13:56:59;;;;;;;2.00;1.90;;;15.80;98.30;;;;;;5049032;28;20228;-74
2021/05/03 13:59:26;;;;;;;2.07;1.83;;;15.90;92.70;;;;;;5045976;28;20191;-75